Terminal Aerodrome Forecast
Issued by NWS

Home | Current Version | Previous Version | Text Only | Print | Product List | Glossary Off
Versions: 1 2 3 4 5 6 7 8 9 10 11 12 13 14 15 16

704
FTUS43 KICT 270647 AAA
TAFSLN
TAF AMD
KSLN 270647Z 2707/2806 11015G22KT P6SM VCTS SCT020 OVC050CB
      TEMPO 2707/2710 4SM TSRA OVC020CB
     FM271000 15008KT 6SM BR OVC008
     FM271600 16016KT P6SM SCT035
     FM272200 16015G23KT P6SM VCTS BKN035CB=

USA.gov is the U.S. government's official web portal to all federal, state and local government web resources and services.